Aviation Digital Data Service (ADDS)

Output produced by TAFs form (0141 UTC 20 April 2014)
found at http://aviationweather.gov/adds/tafs/
 
KTUS 192320Z 2000/2024 30009KT P6SM VCSH SCT080 BKN200 
     FM200300 16007KT P6SM SCT080 
     FM201900 32007KT P6SM SCT200